createdAt,value
2023-03-13T00:13:23.870Z,9.45
2023-03-13T00:20:08.162Z,10.07
2023-03-13T00:22:55.216Z,9.90
2023-03-13T02:02:59.658Z,6.88
2023-03-13T02:05:31.911Z,7.30
2023-03-13T02:09:04.855Z,8.38
2023-03-13T02:34:47.723Z,9.40
2023-03-13T02:53:47.341Z,11.95
2023-03-13T03:14:51.247Z,12.50
2023-03-13T03:21:29.823Z,14.23
2023-03-13T03:24:22.444Z,14.23
2023-03-13T03:27:14.920Z,14.48
2023-03-13T03:30:12.146Z,14.25
2023-03-13T03:32:47.850Z,11.95
2023-03-13T03:36:22.480Z,14.93
2023-03-13T03:38:51.894Z,13.32
2023-03-13T03:41:56.190Z,15.45
2023-03-13T03:44:43.086Z,14.05
2023-03-13T03:47:34.864Z,15.63
2023-03-13T03:50:18.628Z,15.18
2023-03-13T03:53:01.569Z,15.88
2023-03-13T03:55:30.128Z,16.33
2023-03-13T03:58:03.729Z,16.70
2023-03-13T04:01:27.804Z,16.50
2023-03-13T04:03:56.071Z,15.63
2023-03-13T04:07:26.000Z,16.85
2023-03-13T04:10:03.301Z,13.90
2023-03-13T04:12:56.777Z,15.88
2023-03-13T04:16:13.233Z,16.63
2023-03-13T04:20:01.597Z,16.15
2023-03-13T04:26:26.308Z,17.55
2023-03-13T04:29:42.748Z,17.75
2023-03-13T04:32:41.464Z,19.38
2023-03-13T04:35:31.414Z,18.70
2023-03-13T04:38:19.053Z,20.45
2023-03-13T04:41:12.313Z,20.15
2023-03-13T04:44:04.277Z,20.63
2023-03-13T04:46:58.991Z,20.48
2023-03-13T04:52:26.732Z,19.63
2023-03-13T04:55:15.383Z,21.35
2023-03-13T04:58:23.533Z,19.65
2023-03-13T05:01:24.804Z,20.35
2023-03-13T05:04:18.040Z,21.90
2023-03-13T05:07:09.085Z,21.80
2023-03-13T05:09:37.364Z,21.88
2023-03-13T05:12:35.083Z,21.92
2023-03-13T05:15:23.791Z,20.42
2023-03-13T05:18:10.812Z,21.02
2023-03-13T05:21:08.771Z,22.85
2023-03-13T05:24:12.738Z,23.10
2023-03-13T05:26:50.070Z,21.90
2023-03-13T05:29:54.002Z,22.27
2023-03-13T05:33:00.783Z,24.20
2023-03-13T05:35:58.736Z,23.73
2023-03-13T05:38:40.520Z,21.48
2023-03-13T05:41:33.165Z,23.40
2023-03-13T05:44:20.022Z,23.98
2023-03-13T05:47:04.066Z,23.50
2023-03-13T05:49:32.611Z,23.40
2023-03-13T05:52:09.936Z,25.50
2023-03-13T05:54:49.896Z,25.13
2023-03-13T05:57:34.958Z,24.98
2023-03-13T06:00:09.199Z,23.48
2023-03-13T06:03:02.005Z,23.60
2023-03-13T06:05:36.284Z,24.08
2023-03-13T06:08:09.245Z,27.50
2023-03-13T06:10:38.883Z,25.85
2023-03-13T06:13:18.964Z,24.60
2023-03-13T06:15:55.540Z,24.58
2023-03-13T06:18:43.273Z,23.90
2023-03-13T06:21:11.955Z,24.45
2023-03-13T06:23:42.382Z,20.90
2023-03-13T06:26:10.675Z,22.60
2023-03-13T06:28:39.497Z,21.95
2023-03-13T06:31:08.177Z,21.80
2023-03-13T06:33:37.435Z,21.73
2023-03-13T06:36:06.287Z,21.52
2023-03-13T06:38:35.246Z,21.65
2023-03-13T06:41:03.806Z,21.23
2023-03-13T06:43:32.604Z,19.00
2023-03-13T06:46:05.060Z,20.88
2023-03-13T06:48:34.307Z,19.45
2023-03-13T06:51:02.657Z,19.50
2023-03-13T06:53:31.254Z,19.70
2023-03-13T06:56:02.064Z,19.85
2023-03-13T06:58:32.778Z,18.27
2023-03-13T07:01:10.484Z,18.08
2023-03-13T07:03:41.444Z,17.23
2023-03-13T07:06:11.608Z,17.63
2023-03-13T07:08:40.457Z,16.45
2023-03-13T07:11:10.279Z,16.40
2023-03-13T07:13:38.942Z,16.85
2023-03-13T07:16:10.613Z,15.85
2023-03-13T07:18:42.259Z,15.50
2023-03-13T07:21:11.439Z,15.63
2023-03-13T07:23:41.068Z,14.10
2023-03-13T07:26:14.629Z,13.27
2023-03-13T07:28:43.576Z,13.32
2023-03-13T07:31:15.394Z,13.52
2023-03-13T07:33:45.465Z,13.18
2023-03-13T07:36:15.409Z,13.85
2023-03-13T07:38:47.531Z,12.77
2023-03-13T07:41:15.989Z,11.77
2023-03-13T07:43:45.152Z,12.90
2023-03-13T07:46:16.463Z,10.70
2023-03-13T07:48:45.476Z,11.50
2023-03-13T07:51:17.396Z,10.55
2023-03-13T07:53:49.889Z,10.93
2023-03-13T07:56:21.384Z,11.23
2023-03-13T07:58:51.376Z,10.70
2023-03-13T08:01:24.315Z,10.18
2023-03-13T08:03:56.061Z,10.77
2023-03-13T08:06:26.061Z,12.02
2023-03-13T08:08:58.475Z,11.60
2023-03-13T08:13:57.229Z,9.70
2023-03-13T08:16:28.442Z,10.13
2023-03-13T08:18:58.752Z,10.85
2023-03-13T08:21:32.302Z,11.40
2023-03-13T08:24:06.102Z,10.43
2023-03-13T08:26:37.043Z,16.90
2023-03-13T08:29:12.292Z,8.73
2023-03-13T08:31:47.625Z,10.23
2023-03-13T08:34:17.508Z,8.30
2023-03-13T08:36:46.855Z,9.45
2023-03-13T08:39:18.129Z,9.35
2023-03-13T08:41:47.333Z,9.35
2023-03-13T08:44:18.784Z,8.73
2023-03-13T08:46:49.411Z,9.47
2023-03-13T08:49:18.274Z,9.60
2023-03-13T08:51:46.745Z,8.95
2023-03-13T08:54:15.325Z,9.20
2023-03-13T08:56:44.096Z,10.07
2023-03-13T08:59:12.935Z,8.57
2023-03-13T09:01:41.996Z,10.23
2023-03-13T09:04:11.204Z,8.57
2023-03-13T09:06:39.753Z,9.43
2023-03-13T09:09:08.918Z,8.25
2023-03-13T09:11:39.494Z,11.00
2023-03-13T09:14:08.891Z,8.85
2023-03-13T09:16:56.589Z,9.55
2023-03-13T09:19:25.556Z,9.10
2023-03-13T09:21:53.872Z,8.90
2023-03-13T09:24:22.608Z,9.05
2023-03-13T09:27:00.687Z,6.80
2023-03-13T09:29:31.274Z,8.52
2023-03-13T09:32:00.058Z,9.00
2023-03-13T09:34:28.856Z,8.02
2023-03-13T09:36:57.139Z,8.57
2023-03-13T09:39:25.718Z,10.10
2023-03-13T09:42:10.096Z,9.65
2023-03-13T09:45:00.061Z,8.55
2023-03-13T09:47:57.717Z,8.40
2023-03-13T09:50:38.249Z,9.02
2023-03-13T09:53:15.776Z,8.77
2023-03-13T09:55:46.001Z,9.30
2023-03-13T09:58:24.683Z,8.75
2023-03-13T10:01:02.950Z,9.02
2023-03-13T10:03:48.408Z,9.20
2023-03-13T10:06:24.011Z,9.27
2023-03-13T10:08:53.154Z,8.77
2023-03-13T10:11:39.744Z,7.80
2023-03-13T10:14:20.941Z,8.93
2023-03-13T10:16:56.819Z,7.88
2023-03-13T10:19:44.465Z,7.63
2023-03-13T10:22:27.165Z,8.10
2023-03-13T10:25:00.844Z,8.40
2023-03-13T10:27:30.014Z,8.52
2023-03-13T10:29:58.907Z,8.77
2023-03-13T10:32:27.839Z,9.40
2023-03-13T10:34:57.967Z,14.00
2023-03-13T10:37:31.923Z,8.88
2023-03-13T10:40:25.006Z,9.30
2023-03-13T10:43:03.132Z,9.35
2023-03-13T10:45:35.808Z,8.35
2023-03-13T10:48:19.204Z,8.65
2023-03-13T10:50:50.686Z,8.88
2023-03-13T10:53:32.652Z,8.57
2023-03-13T10:56:11.136Z,8.25
2023-03-13T10:58:46.234Z,8.48
2023-03-13T11:01:34.506Z,9.32
2023-03-13T11:04:21.711Z,8.85
2023-03-13T11:07:01.390Z,7.90
2023-03-13T11:09:30.462Z,8.18
2023-03-13T11:12:06.027Z,9.15
2023-03-13T11:14:38.547Z,8.40
2023-03-13T11:17:25.096Z,8.45
2023-03-13T11:20:08.687Z,10.93
2023-03-13T11:23:18.690Z,9.43
2023-03-13T11:26:12.511Z,10.57
2023-03-13T11:28:56.180Z,9.15
2023-03-13T11:31:31.728Z,8.57
2023-03-13T11:34:30.105Z,9.48
2023-03-13T11:37:09.981Z,8.60
2023-03-13T11:39:48.270Z,7.80
2023-03-13T11:42:39.355Z,9.73
2023-03-13T11:45:13.260Z,11.30
2023-03-13T11:48:29.269Z,9.70
2023-03-13T11:51:20.621Z,8.95
2023-03-13T11:54:15.216Z,9.60
2023-03-13T11:56:53.406Z,10.00
2023-03-13T12:00:03.524Z,9.15
2023-03-13T12:02:52.121Z,9.52
2023-03-13T12:05:23.658Z,8.85
2023-03-13T12:07:59.289Z,10.25
2023-03-13T12:10:36.619Z,9.60
2023-03-13T12:13:21.747Z,12.93
2023-03-13T12:15:57.344Z,8.75
2023-03-13T12:18:36.124Z,10.80
2023-03-13T12:21:19.401Z,11.25
2023-03-13T12:24:03.024Z,11.10
2023-03-13T12:26:43.877Z,10.32
2023-03-13T12:29:47.374Z,11.40
2023-03-13T12:32:33.536Z,11.50
2023-03-13T12:35:29.040Z,11.68
2023-03-13T12:38:17.768Z,10.70
2023-03-13T12:41:25.220Z,11.50
2023-03-13T12:44:08.347Z,12.65
2023-03-13T12:46:44.569Z,11.82
2023-03-13T12:49:24.380Z,11.88
2023-03-13T12:52:02.995Z,12.00
2023-03-13T12:55:03.016Z,13.32
2023-03-13T12:58:07.060Z,11.27
2023-03-13T13:00:40.222Z,10.25
2023-03-13T13:03:22.758Z,10.25
2023-03-13T13:06:26.104Z,16.58
2023-03-13T13:08:54.867Z,11.48
2023-03-13T13:11:39.248Z,10.60
2023-03-13T13:14:17.812Z,12.60
2023-03-13T13:17:25.400Z,12.77
2023-03-13T13:19:54.935Z,11.35
2023-03-13T13:22:38.510Z,8.35
2023-03-13T13:25:13.082Z,10.80
2023-03-13T13:27:41.711Z,8.90
2023-03-13T13:30:32.426Z,9.60
2023-03-13T13:33:19.307Z,11.18
2023-03-13T13:36:08.486Z,9.52
2023-03-13T13:38:41.181Z,9.35
2023-03-13T13:41:09.556Z,8.93
2023-03-13T13:43:49.382Z,8.07
2023-03-13T13:46:29.508Z,7.85
2023-03-13T13:49:07.859Z,8.20
2023-03-13T13:52:13.888Z,7.70
2023-03-13T13:59:26.821Z,5.63
2023-03-13T14:02:22.413Z,5.18
2023-03-13T14:05:25.783Z,6.22
2023-03-13T14:08:00.628Z,5.38
2023-03-13T14:10:50.205Z,6.20
2023-03-13T14:13:25.763Z,7.28
2023-03-13T14:16:26.341Z,4.57
2023-03-13T14:18:47.500Z,5.78
2023-03-13T14:21:23.075Z,5.80
2023-03-13T14:23:53.268Z,5.75
2023-03-13T14:26:26.837Z,4.88
2023-03-13T14:29:07.861Z,4.78
2023-03-13T14:31:39.222Z,6.18
2023-03-13T14:34:12.376Z,6.55
2023-03-13T14:36:57.016Z,7.00
2023-03-13T14:39:33.988Z,8.32
2023-03-13T14:42:09.433Z,10.05
2023-03-13T14:44:46.451Z,6.45
2023-03-13T14:47:31.487Z,6.97
2023-03-13T14:50:09.827Z,7.20
2023-03-13T14:52:46.439Z,8.30
2023-03-13T14:55:43.575Z,8.65
2023-03-13T14:58:31.090Z,8.38
2023-03-13T15:01:13.821Z,10.35
2023-03-13T15:07:04.707Z,7.90
2023-03-13T15:11:19.489Z,7.68
2023-03-13T15:13:36.954Z,8.40
2023-03-13T15:16:24.428Z,9.68
2023-03-13T15:18:55.009Z,8.25
2023-03-13T15:21:42.026Z,7.78
2023-03-13T15:25:54.928Z,7.28
2023-03-13T15:28:50.240Z,8.45
2023-03-13T15:31:48.376Z,7.28
2023-03-13T15:34:27.750Z,22.75
2023-03-13T15:37:51.847Z,8.55
2023-03-13T15:40:28.983Z,9.73
2023-03-13T15:42:58.252Z,8.43
2023-03-13T15:45:40.165Z,9.90
2023-03-13T15:48:32.018Z,8.13
2023-03-13T15:51:08.988Z,10.90
2023-03-13T15:53:41.533Z,11.48
2023-03-13T15:56:33.407Z,13.05
2023-03-13T15:59:16.882Z,10.15
2023-03-13T16:01:55.483Z,9.60
2023-03-13T16:04:40.956Z,6.70
2023-03-13T16:07:15.175Z,8.43
2023-03-13T16:09:50.392Z,7.28
2023-03-13T16:12:19.706Z,6.65
2023-03-13T16:14:48.313Z,8.65
2023-03-13T16:17:33.127Z,7.80
2023-03-13T16:20:16.824Z,6.10
2023-03-13T16:23:08.834Z,7.63
2023-03-13T16:25:39.567Z,7.35
2023-03-13T16:28:14.705Z,8.50
2023-03-13T16:30:47.823Z,8.98
2023-03-13T16:33:18.034Z,7.05
2023-03-13T16:35:48.822Z,6.88
2023-03-13T16:38:22.895Z,6.68
2023-03-13T16:40:51.799Z,6.93
2023-03-13T16:43:25.470Z,7.43
2023-03-13T16:45:55.745Z,5.15
2023-03-13T16:48:24.734Z,6.10
2023-03-13T16:51:00.137Z,8.07
2023-03-13T16:53:47.971Z,6.65
2023-03-13T16:56:29.357Z,8.52
2023-03-13T16:58:58.811Z,7.15
2023-03-13T17:01:30.244Z,6.38
2023-03-13T17:04:00.794Z,9.15
2023-03-13T17:06:52.342Z,8.05
2023-03-13T17:09:30.845Z,7.35
2023-03-13T17:12:05.638Z,7.70
2023-03-13T17:14:42.041Z,7.10
2023-03-13T17:17:27.918Z,7.30
2023-03-13T17:20:06.918Z,7.07
2023-03-13T17:23:59.525Z,6.50
2023-03-13T17:26:04.395Z,6.35
2023-03-13T17:28:56.533Z,6.38
2023-03-13T17:31:40.147Z,6.85
2023-03-13T17:34:18.159Z,6.95
2023-03-13T17:36:49.329Z,7.68
2023-03-13T17:39:27.942Z,7.00
2023-03-13T17:42:03.311Z,7.38
2023-03-13T17:44:36.680Z,7.93
2023-03-13T17:47:27.613Z,8.55
2023-03-13T17:49:56.083Z,9.15
2023-03-13T17:52:26.982Z,8.07
2023-03-13T17:55:18.997Z,8.75
2023-03-13T17:57:49.021Z,8.05
2023-03-13T18:00:24.433Z,8.50
2023-03-13T18:03:06.049Z,7.03
2023-03-13T18:05:55.973Z,7.93
2023-03-13T18:08:27.985Z,7.80
2023-03-13T18:11:02.797Z,8.00
2023-03-13T18:13:36.963Z,8.52
2023-03-13T18:16:43.509Z,9.00
2023-03-13T18:19:25.886Z,8.27
2023-03-13T18:22:03.025Z,8.20
2023-03-13T18:24:32.072Z,8.25
2023-03-13T18:27:05.221Z,9.43
2023-03-13T18:29:37.328Z,9.32
2023-03-13T18:32:17.041Z,9.10
2023-03-13T18:34:54.552Z,8.43
2023-03-13T18:37:34.954Z,7.88
2023-03-13T18:40:19.607Z,8.63
2023-03-13T18:42:58.456Z,8.73
2023-03-13T18:45:37.495Z,8.93
2023-03-13T18:48:11.649Z,8.48
2023-03-13T18:51:06.756Z,9.10
2023-03-13T18:53:42.943Z,9.55
2023-03-13T18:56:22.105Z,9.07
2023-03-13T18:58:55.247Z,8.63
2023-03-13T19:01:30.388Z,8.65
2023-03-13T19:04:00.206Z,9.93
2023-03-13T19:06:34.615Z,9.23
2023-03-13T19:09:42.572Z,8.93
2023-03-13T19:12:43.990Z,9.38
2023-03-13T19:15:29.432Z,8.25
2023-03-13T19:20:55.930Z,9.07
2023-03-13T19:23:25.186Z,8.52
2023-03-13T19:25:57.074Z,10.50
2023-03-13T20:08:38.581Z,11.55
2023-03-13T20:16:35.317Z,11.52
2023-03-13T20:19:17.378Z,11.25
2023-03-13T20:22:16.779Z,10.95
2023-03-13T20:29:53.648Z,10.77
2023-03-13T20:32:30.859Z,10.30
2023-03-13T20:35:28.473Z,9.70
2023-03-13T20:38:01.976Z,9.45
2023-03-13T20:40:31.355Z,9.52
2023-03-13T20:46:00.735Z,11.07
2023-03-13T20:49:01.956Z,9.55
2023-03-13T21:25:40.113Z,8.27
2023-03-13T21:28:09.624Z,8.95
2023-03-13T21:30:55.974Z,7.18
2023-03-13T21:33:28.947Z,7.30
2023-03-13T21:35:58.719Z,7.85
2023-03-13T21:38:28.023Z,8.02
2023-03-13T21:41:00.714Z,6.38
2023-03-13T21:43:58.838Z,7.85
2023-03-13T21:46:33.233Z,7.35
2023-03-13T21:49:02.226Z,6.90
2023-03-13T21:51:30.524Z,6.18
2023-03-13T21:53:59.115Z,6.53
2023-03-13T21:56:27.542Z,7.07
2023-03-13T21:58:56.398Z,6.40
2023-03-13T22:01:24.844Z,6.47
2023-03-13T22:03:53.583Z,7.25
2023-03-13T22:06:23.046Z,6.13
2023-03-13T22:08:51.955Z,6.38
2023-03-13T22:11:20.385Z,6.53
2023-03-13T22:13:52.704Z,6.55
2023-03-13T22:16:21.564Z,5.05
2023-03-13T22:18:50.478Z,6.20
2023-03-13T22:21:19.626Z,6.22
2023-03-13T22:23:48.499Z,6.50
2023-03-13T22:26:17.680Z,6.38
2023-03-13T22:28:46.685Z,6.95
2023-03-13T22:31:16.327Z,6.68
2023-03-13T22:33:45.018Z,6.40
2023-03-13T22:36:13.422Z,6.32
2023-03-13T22:38:42.211Z,5.40
2023-03-13T22:41:13.741Z,5.90
2023-03-13T22:43:43.111Z,6.22
2023-03-13T22:46:12.236Z,6.10
2023-03-13T22:48:42.008Z,5.88
2023-03-13T22:51:13.194Z,5.70
2023-03-13T22:53:44.157Z,5.50
2023-03-13T22:56:14.043Z,5.72
2023-03-13T22:58:43.253Z,6.07
2023-03-13T23:01:14.666Z,5.40
2023-03-13T23:03:45.746Z,5.55
2023-03-13T23:06:22.095Z,5.47
2023-03-13T23:09:30.812Z,5.07
2023-03-13T23:11:59.474Z,5.65
2023-03-13T23:14:29.196Z,5.75
2023-03-13T23:16:58.245Z,5.70
2023-03-13T23:19:26.556Z,5.78
2023-03-13T23:21:55.586Z,5.32
2023-03-13T23:24:24.780Z,5.50
2023-03-13T23:26:53.521Z,4.85
2023-03-13T23:29:23.206Z,5.60
2023-03-13T23:31:52.975Z,4.72
2023-03-13T23:34:23.107Z,5.32
2023-03-13T23:36:54.853Z,4.72
2023-03-13T23:39:27.961Z,5.20
2023-03-13T23:42:04.876Z,5.45
2023-03-13T23:44:35.010Z,5.57
2023-03-13T23:47:07.383Z,5.43
2023-03-13T23:49:35.778Z,4.68
2023-03-13T23:52:04.786Z,5.05
2023-03-13T23:54:33.156Z,5.05
2023-03-13T23:57:01.851Z,4.95
2023-03-13T23:59:30.076Z,5.85
